This is the latest recevied weather packets stored in our database for station/object HP1MRA-15. If no packets are shown the sender has not sent any weather packets the latest 10 day(s).
| Time | Temp. | Humidity | Pressure | Rain* | Wind** | Luminosity | Snow |
|---|---|---|---|---|---|---|---|
| 1777592282 | 31.67° C | 61% | 997.6 hPa | 0 mm | - | - | - |
| 1777591981 | 31.67° C | 62% | 997.7 hPa | 0 mm | - | - | - |
| 1777591682 | 31.67° C | 62% | 998 hPa | 0 mm | - | - | - |
| 1777591381 | - | - | 998 hPa | 0 mm | - | - | - |
| 1777591081 | 31.67° C | 62% | 997.9 hPa | 0 mm | - | - | - |
| 1777590782 | 31.67° C | 63% | 997.5 hPa | 0 mm | - | - | - |
| 1777590481 | 31.11° C | 63% | 997.3 hPa | 0 mm | - | - | - |
| 1777590181 | 31.11° C | 64% | 997.1 hPa | 0 mm | - | - | - |
| 1777589882 | 30.56° C | 65% | 996.9 hPa | 0 mm | - | - | - |
| 1777589581 | 30° C | 66% | 997 hPa | 0 mm | - | - | - |
| 1777589281 | 30° C | 67% | 997.1 hPa | 0 mm | - | - | - |
| 1777588981 | 30° C | 67% | 996.8 hPa | 0 mm | - | - | - |
| 1777588681 | 30° C | 67% | 996.7 hPa | 0 mm | - | - | - |
| 1777588382 | 30.56° C | 66% | 996.9 hPa | 0 mm | - | - | - |
| 1777588081 | 30.56° C | 66% | 996.9 hPa | 0 mm | - | - | - |
| 1777587781 | 30.56° C | 65% | 996.9 hPa | 0 mm | - | - | - |
| 1777587481 | 31.11° C | 63% | 996.6 hPa | 0 mm | - | - | - |
| 1777587181 | 32.22° C | 59% | 996.7 hPa | 0 mm | - | - | - |
| 1777586881 | 33.33° C | 55% | 996.7 hPa | 0 mm | - | - | - |
| 1777586581 | 33.89° C | 52% | 996.8 hPa | 0 mm | - | - | - |
| 1777586281 | 34.44° C | 51% | 996.6 hPa | 0 mm | - | - | - |
| 1777585980 | 34.44° C | 51% | 996.4 hPa | 0 mm | - | - | - |
| 1777585681 | 35° C | 50% | 996.1 hPa | 0 mm | - | - | - |
| 1777585381 | 35° C | 49% | 996 hPa | 0 mm | - | - | - |
| 1777585080 | 35.56° C | 49% | 996.1 hPa | 0 mm | - | - | - |
* Rain latest hour (hover to see other rain measurements)
** Current wind speed in m/s (hover to see current wind gust speed)